Time;durP1;ratioP1;P1;durP2;ratioP2;P2;SDS_P1;SDS_P2;PMS_P1;PMS_P2;Temp;Humidity;BMP_temperature;BMP_pressure;BME280_temperature;BME280_humidity;BME280_pressure;Samples;Min_cycle;Max_cycle;Signal;HPM_P1;HPM_P2
2020/12/19 00:00:13;;;;;;;16.77;11.60;;;6.20;91.50;;;;;;5073766;28;20027;-79
2020/12/19 00:02:40;;;;;;;17.70;11.50;;;6.10;91.50;;;;;;5074757;28;20040;-79
2020/12/19 00:05:07;;;;;;;19.85;11.02;;;6.10;91.60;;;;;;5056892;28;20071;-79
2020/12/19 00:07:33;;;;;;;16.08;10.15;;;6.20;91.60;;;;;;5074590;28;20039;-79
2020/12/19 00:10:00;;;;;;;20.13;11.50;;;6.20;91.60;;;;;;5074876;28;20096;-79
2020/12/19 00:12:25;;;;;;;13.25;9.88;;;6.20;91.60;;;;;;5075010;28;20035;-79
2020/12/19 00:14:51;;;;;;;18.05;11.63;;;6.20;91.60;;;;;;5073152;28;20033;-79
2020/12/19 00:17:17;;;;;;;16.27;11.15;;;6.20;91.60;;;;;;5073002;28;20028;-79
2020/12/19 00:19:42;;;;;;;18.67;11.38;;;6.10;91.60;;;;;;5073374;28;20036;-79
2020/12/19 00:22:08;;;;;;;15.43;10.88;;;6.10;91.60;;;;;;5074519;28;20048;-79
2020/12/19 00:24:34;;;;;;;16.75;11.25;;;6.10;91.60;;;;;;5074618;28;20540;-79
2020/12/19 00:26:59;;;;;;;16.58;11.52;;;6.10;91.70;;;;;;5074487;28;20472;-79
2020/12/19 00:29:25;;;;;;;21.10;11.95;;;6.10;91.70;;;;;;5056609;28;20033;-79
2020/12/19 00:31:50;;;;;;;16.65;11.52;;;6.10;91.70;;;;;;5056540;28;20032;-79
2020/12/19 00:34:19;;;;;;;16.77;11.38;;;6.10;91.70;;;;;;5058605;28;20074;-75
2020/12/19 00:36:45;;;;;;;15.98;11.00;;;6.10;91.70;;;;;;5074724;28;20024;-75
2020/12/19 00:39:11;;;;;;;15.98;11.85;;;6.10;91.70;;;;;;5073685;28;20108;-75
2020/12/19 00:41:36;;;;;;;18.33;11.52;;;6.10;91.70;;;;;;5056419;28;20063;-75
2020/12/19 00:44:02;;;;;;;18.40;10.70;;;6.10;91.70;;;;;;5073568;28;20024;-75
2020/12/19 00:46:28;;;;;;;17.73;11.65;;;6.10;92.00;;;;;;5056090;28;20373;-79
2020/12/19 00:48:53;;;;;;;16.48;11.60;;;6.10;91.80;;;;;;5072503;28;20617;-79
2020/12/19 00:51:22;;;;;;;16.23;10.65;;;6.10;91.80;;;;;;5056171;28;20119;-79
2020/12/19 00:53:49;;;;;;;17.05;11.07;;;6.00;91.70;;;;;;5073946;28;20020;-79
2020/12/19 00:56:20;;;;;;;20.30;11.50;;;6.00;91.70;;;;;;5072378;28;20171;-82
2020/12/19 00:58:46;;;;;;;15.98;11.55;;;6.00;91.80;;;;;;5072718;28;20459;-83
2020/12/19 01:01:13;;;;;;;18.98;11.48;;;6.00;91.80;;;;;;5072575;28;20159;-79
2020/12/19 01:03:40;;;;;;;19.42;10.85;;;6.00;91.80;;;;;;5072695;28;20112;-79
2020/12/19 01:06:06;;;;;;;16.77;11.25;;;6.00;91.80;;;;;;5056122;28;20025;-79
2020/12/19 01:08:32;;;;;;;17.92;12.02;;;6.00;91.80;;;;;;5073745;28;20107;-79
2020/12/19 01:10:58;;;;;;;16.98;11.52;;;5.90;91.80;;;;;;5073511;28;20116;-79
2020/12/19 01:13:24;;;;;;;15.82;11.23;;;5.90;92.10;;;;;;5073067;28;20039;-79
2020/12/19 01:15:49;;;;;;;18.08;12.50;;;5.90;92.20;;;;;;5073320;28;20479;-79
2020/12/19 01:18:17;;;;;;;17.63;12.02;;;5.90;91.90;;;;;;5073286;28;20059;-79
2020/12/19 01:20:42;;;;;;;16.70;11.65;;;5.90;91.90;;;;;;5071913;28;20070;-75
2020/12/19 01:23:08;;;;;;;16.63;11.52;;;5.90;91.90;;;;;;5072998;28;20024;-75
2020/12/19 01:25:33;;;;;;;15.07;11.02;;;5.90;91.90;;;;;;5085943;28;20408;-79
2020/12/19 01:27:59;;;;;;;21.02;12.02;;;5.90;91.90;;;;;;5071626;28;20052;-79
2020/12/19 01:30:24;;;;;;;21.33;12.88;;;5.90;91.90;;;;;;5073641;28;20025;-79
2020/12/19 01:32:50;;;;;;;20.25;12.27;;;5.90;91.90;;;;;;5072099;28;20028;-82
2020/12/19 01:35:17;;;;;;;26.48;13.32;;;5.90;92.00;;;;;;5055620;28;20124;-82
2020/12/19 01:37:43;;;;;;;21.65;13.80;;;5.90;92.00;;;;;;5072001;28;20111;-83
2020/12/19 01:40:08;;;;;;;20.10;12.23;;;5.90;92.00;;;;;;5055292;28;20044;-82
2020/12/19 01:42:34;;;;;;;19.30;12.85;;;5.90;92.00;;;;;;5073455;28;20642;-82
2020/12/19 01:45:00;;;;;;;19.50;12.60;;;5.90;92.00;;;;;;5055191;28;20052;-82
2020/12/19 01:47:26;;;;;;;21.42;13.82;;;5.90;92.00;;;;;;5071626;28;20128;-82
2020/12/19 01:49:52;;;;;;;21.63;12.68;;;5.90;92.00;;;;;;5071964;28;20086;-82
2020/12/19 01:52:21;;;;;;;18.42;12.73;;;5.90;92.10;;;;;;5054814;28;20123;-82
2020/12/19 01:54:48;;;;;;;17.63;11.93;;;5.90;92.10;;;;;;5071845;28;20063;-82
2020/12/19 01:57:17;;;;;;;20.02;13.45;;;5.90;92.10;;;;;;5073844;28;20025;-82
2020/12/19 01:59:42;;;;;;;;;;;5.80;92.10;;;;;;5093759;28;20036;-82
2020/12/19 02:02:08;;;;;;;19.27;12.55;;;5.80;92.00;;;;;;5075142;28;19915;-82
2020/12/19 02:04:34;;;;;;;18.98;12.88;;;5.80;92.10;;;;;;5058331;28;20031;-82
2020/12/19 02:07:02;;;;;;;19.63;13.45;;;5.80;92.10;;;;;;5093339;28;20063;-82
2020/12/19 02:09:39;;;;;;;24.40;13.82;;;5.80;92.20;;;;;;5093340;28;20029;-82
2020/12/19 02:12:05;;;;;;;22.38;13.77;;;5.80;92.20;;;;;;5076840;28;20106;-82
2020/12/19 02:14:31;;;;;;;20.70;13.52;;;5.80;92.20;;;;;;5068468;28;20040;-82
2020/12/19 02:17:02;;;;;;;19.90;13.75;;;5.80;92.20;;;;;;5089916;28;20031;-82
2020/12/19 02:19:29;;;;;;;22.85;13.75;;;5.80;92.20;;;;;;5093087;28;20012;-82
2020/12/19 02:21:56;;;;;;;21.33;13.52;;;5.80;92.20;;;;;;5074282;28;20036;-82
2020/12/19 02:24:22;;;;;;;18.42;13.07;;;5.80;92.20;;;;;;5092303;28;20024;-82
2020/12/19 02:26:52;;;;;;;21.45;13.65;;;5.80;92.20;;;;;;5074322;28;20369;-82
2020/12/19 02:29:19;;;;;;;18.92;13.45;;;5.80;92.20;;;;;;5074012;28;20103;-82
2020/12/19 02:31:46;;;;;;;22.95;14.50;;;5.80;92.20;;;;;;5066786;28;20035;-82
2020/12/19 02:34:12;;;;;;;24.77;15.65;;;5.80;92.30;;;;;;5091322;28;20488;-79
2020/12/19 02:36:38;;;;;;;20.13;13.55;;;5.80;92.30;;;;;;5074795;28;20034;-79
2020/12/19 02:39:05;;;;;;;25.42;14.18;;;5.80;92.30;;;;;;5092003;28;20032;-79
2020/12/19 02:41:34;;;;;;;20.83;13.43;;;5.80;92.30;;;;;;5078437;28;20479;-79
2020/12/19 02:44:00;;;;;;;16.98;12.80;;;5.80;92.30;;;;;;5096702;28;20141;-79
2020/12/19 02:46:25;;;;;;;21.08;13.30;;;5.80;92.30;;;;;;5096769;28;20036;-79
2020/12/19 02:48:51;;;;;;;18.98;13.43;;;5.80;92.30;;;;;;5078322;28;20039;-79
2020/12/19 02:51:17;;;;;;;22.23;13.60;;;5.80;92.30;;;;;;5061725;28;20454;-79
2020/12/19 02:53:43;;;;;;;23.50;15.20;;;5.80;92.30;;;;;;5078329;28;20035;-79
2020/12/19 02:56:08;;;;;;;23.10;14.88;;;5.80;92.30;;;;;;5078178;28;20028;-75
2020/12/19 02:58:34;;;;;;;20.67;13.80;;;5.80;92.40;;;;;;5061273;28;20048;-75
2020/12/19 03:01:00;;;;;;;24.77;14.98;;;5.80;92.40;;;;;;5095776;28;20024;-76
2020/12/19 03:03:26;;;;;;;20.30;13.30;;;5.70;92.40;;;;;;5077629;28;20408;-75
2020/12/19 03:05:51;;;;;;;19.80;12.85;;;5.80;92.40;;;;;;5077408;28;20028;-74
2020/12/19 03:08:17;;;;;;;24.30;14.98;;;5.70;92.40;;;;;;5077565;28;20052;-75
2020/12/19 03:10:43;;;;;;;25.00;13.88;;;5.80;92.40;;;;;;5077922;28;20553;-75
2020/12/19 03:13:09;;;;;;;21.20;12.32;;;5.80;92.40;;;;;;5073629;28;20029;-75
2020/12/19 03:15:34;;;;;;;20.63;13.73;;;5.80;92.50;;;;;;5077619;28;20116;-74
2020/12/19 03:18:00;;;;;;;20.63;13.40;;;5.70;92.40;;;;;;5077322;28;20036;-75
2020/12/19 03:20:26;;;;;;;20.70;14.35;;;5.70;92.40;;;;;;5077428;28;20077;-75
2020/12/19 03:22:51;;;;;;;21.42;13.98;;;5.80;92.50;;;;;;5060579;28;20495;-75
2020/12/19 03:25:17;;;;;;;21.60;13.52;;;5.70;92.50;;;;;;5077336;28;20107;-75
2020/12/19 03:27:42;;;;;;;20.45;13.80;;;5.70;92.50;;;;;;5073628;28;20124;-75
2020/12/19 03:30:08;;;;;;;23.42;14.00;;;5.70;92.50;;;;;;5042439;28;20446;-75
2020/12/19 03:32:34;;;;;;;20.38;13.50;;;5.70;92.50;;;;;;5095232;28;20020;-75
2020/12/19 03:34:59;;;;;;;20.77;13.10;;;5.70;92.50;;;;;;5095101;28;20031;-75
2020/12/19 03:37:25;;;;;;;21.48;14.32;;;5.70;92.50;;;;;;5105209;28;20043;-75
2020/12/19 03:39:51;;;;;;;19.13;12.80;;;5.70;92.50;;;;;;5082243;28;20107;-74
2020/12/19 03:42:16;;;;;;;19.33;12.65;;;5.70;92.50;;;;;;5076645;28;20032;-75
2020/12/19 03:44:42;;;;;;;21.88;13.25;;;5.70;92.50;;;;;;5076883;28;20023;-74
2020/12/19 03:47:08;;;;;;;18.50;12.50;;;5.80;92.50;;;;;;5042622;28;20039;-74
2020/12/19 03:49:34;;;;;;;18.95;12.52;;;5.80;92.50;;;;;;5076805;28;20039;-75
2020/12/19 03:52:00;;;;;;;20.55;12.75;;;5.80;92.50;;;;;;5092260;28;20556;-75
2020/12/19 03:54:25;;;;;;;16.13;12.43;;;5.70;92.50;;;;;;5059734;28;20114;-75
2020/12/19 03:56:51;;;;;;;19.27;13.23;;;5.70;92.50;;;;;;5059268;28;20024;-75
2020/12/19 03:59:16;;;;;;;21.67;13.95;;;5.80;92.60;;;;;;5094566;28;20408;-75
2020/12/19 04:01:42;;;;;;;19.10;12.45;;;5.80;92.60;;;;;;5076582;28;20028;-74
2020/12/19 04:04:08;;;;;;;19.95;13.38;;;5.80;92.60;;;;;;5043291;28;20038;-75
2020/12/19 04:06:33;;;;;;;21.98;14.13;;;5.80;92.50;;;;;;5090668;28;20058;-75
2020/12/19 04:08:59;;;;;;;24.25;13.43;;;5.80;92.50;;;;;;5076710;28;20024;-75
2020/12/19 04:11:24;;;;;;;19.30;13.02;;;5.80;92.60;;;;;;5076076;28;20469;-74
2020/12/19 04:13:50;;;;;;;19.33;13.13;;;5.80;92.60;;;;;;5076639;28;20036;-75
2020/12/19 04:16:16;;;;;;;19.67;12.18;;;5.70;92.80;;;;;;5094375;28;20032;-75
2020/12/19 04:18:41;;;;;;;19.88;13.43;;;5.80;92.60;;;;;;5076392;28;20482;-75
2020/12/19 04:21:08;;;;;;;20.15;12.35;;;5.80;92.60;;;;;;5076274;28;20020;-74
2020/12/19 04:23:34;;;;;;;21.25;12.90;;;5.70;92.60;;;;;;5094296;28;20027;-75
2020/12/19 04:26:00;;;;;;;19.75;11.90;;;5.80;92.70;;;;;;5058047;28;20436;-82
2020/12/19 04:28:26;;;;;;;17.23;11.82;;;5.70;92.60;;;;;;5094548;28;20035;-83
2020/12/19 04:30:52;;;;;;;17.80;12.35;;;5.80;92.70;;;;;;5071427;28;20016;-82
2020/12/19 04:33:18;;;;;;;20.23;12.35;;;5.70;92.60;;;;;;5075650;28;20472;-82
2020/12/19 04:35:43;;;;;;;19.75;12.57;;;5.80;92.70;;;;;;5059411;28;20031;-82
2020/12/19 04:38:09;;;;;;;19.10;12.95;;;5.70;92.70;;;;;;5075963;28;20518;-83
2020/12/19 04:40:35;;;;;;;20.20;12.57;;;5.70;92.70;;;;;;5068091;28;20073;-82
2020/12/19 04:43:19;;;;;;;18.75;12.32;;;5.70;92.70;;;;;;5073443;28;20036;-79
2020/12/19 04:45:46;;;;;;;19.50;12.57;;;5.80;92.80;;;;;;5093846;28;20043;-79
2020/12/19 04:48:16;;;;;;;19.02;12.32;;;5.80;92.70;;;;;;5075910;28;20396;-79
2020/12/19 04:50:46;;;;;;;16.73;11.52;;;5.80;92.70;;;;;;5075481;28;20451;-79
2020/12/19 04:53:20;;;;;;;19.27;12.05;;;5.80;92.70;;;;;;5075512;28;20031;-79
2020/12/19 04:55:46;;;;;;;14.50;10.70;;;5.80;92.70;;;;;;5075424;28;20048;-79
2020/12/19 04:58:18;;;;;;;19.50;11.52;;;5.80;92.70;;;;;;5085018;28;20056;-75
2020/12/19 05:00:45;;;;;;;19.15;11.95;;;5.80;92.70;;;;;;5102833;28;20028;-76
2020/12/19 05:03:11;;;;;;;17.67;11.50;;;5.70;92.70;;;;;;5071712;28;20047;-75
2020/12/19 05:05:40;;;;;;;23.33;12.55;;;5.80;92.70;;;;;;5054885;28;20029;-75
2020/12/19 05:08:06;;;;;;;18.50;12.23;;;5.80;92.70;;;;;;5072995;28;20074;-76
2020/12/19 05:10:32;;;;;;;18.52;12.70;;;5.80;92.70;;;;;;5073425;28;20025;-76
2020/12/19 05:12:57;;;;;;;19.15;12.52;;;5.80;92.70;;;;;;5072134;28;20025;-75
2020/12/19 05:15:23;;;;;;;20.67;11.80;;;5.70;92.70;;;;;;5071903;28;20078;-75
2020/12/19 05:17:56;;;;;;;17.75;11.38;;;5.80;92.70;;;;;;5072531;28;20028;-80
2020/12/19 05:20:23;;;;;;;21.13;12.20;;;5.80;92.80;;;;;;5073543;28;20078;-79
2020/12/19 05:22:50;;;;;;;20.27;12.98;;;5.80;92.80;;;;;;5073325;28;20025;-79
2020/12/19 05:25:18;;;;;;;18.85;12.40;;;5.80;92.70;;;;;;5073456;28;20028;-79
2020/12/19 05:27:45;;;;;;;17.48;12.23;;;5.80;92.70;;;;;;5073382;28;20029;-79
2020/12/19 05:30:12;;;;;;;19.15;12.10;;;5.80;92.70;;;;;;5073435;28;20388;-79
2020/12/19 05:32:43;;;;;;;18.42;12.05;;;5.80;92.70;;;;;;5073079;28;20032;-76
2020/12/19 05:35:09;;;;;;;18.42;11.23;;;5.80;92.70;;;;;;5072350;28;20032;-75
2020/12/19 05:37:35;;;;;;;17.52;12.05;;;5.80;92.70;;;;;;5055061;28;20021;-75
2020/12/19 05:40:13;;;;;;;16.67;11.27;;;5.70;92.70;;;;;;5072862;28;20452;-75
2020/12/19 05:42:39;;;;;;;22.35;14.32;;;5.70;92.80;;;;;;5071766;28;20036;-75
2020/12/19 05:45:13;;;;;;;19.50;11.80;;;5.70;92.70;;;;;;5072687;28;20028;-75
2020/12/19 05:47:39;;;;;;;20.65;12.75;;;5.70;92.80;;;;;;5071333;28;20029;-76
2020/12/19 05:50:05;;;;;;;16.60;11.00;;;5.70;92.70;;;;;;5071504;28;20044;-75
2020/12/19 05:52:32;;;;;;;22.13;11.70;;;5.80;92.80;;;;;;5071395;28;20034;-75
2020/12/19 05:55:01;;;;;;;18.98;11.35;;;5.70;93.00;;;;;;5071350;28;20056;-75
2020/12/19 05:57:28;;;;;;;21.88;11.95;;;5.80;92.80;;;;;;5071158;28;20033;-75
2020/12/19 05:59:57;;;;;;;16.27;10.73;;;5.70;92.70;;;;;;5071361;28;20052;-76
2020/12/19 06:02:23;;;;;;;17.00;11.50;;;5.80;92.80;;;;;;5071317;28;20032;-75
2020/12/19 06:04:50;;;;;;;20.10;12.15;;;5.80;92.70;;;;;;5052832;28;20021;-75
2020/12/19 06:07:16;;;;;;;19.75;13.02;;;5.70;92.80;;;;;;5068977;28;20553;-76
2020/12/19 06:09:43;;;;;;;17.52;11.45;;;5.70;92.70;;;;;;5054521;28;20074;-75
2020/12/19 06:12:10;;;;;;;20.83;12.55;;;5.80;92.80;;;;;;5071388;28;20037;-75
2020/12/19 06:14:44;;;;;;;20.63;12.20;;;5.80;92.80;;;;;;5072321;28;20023;-76
2020/12/19 06:17:15;;;;;;;19.48;12.07;;;5.80;92.80;;;;;;5076912;28;20048;-79
2020/12/19 06:19:43;;;;;;;18.65;11.20;;;5.80;92.80;;;;;;5075672;28;20048;-79
2020/12/19 06:22:09;;;;;;;20.65;13.02;;;5.80;92.70;;;;;;5076875;28;20024;-79
2020/12/19 06:24:48;;;;;;;16.83;12.13;;;5.80;92.70;;;;;;5058922;28;20170;-79
2020/12/19 06:27:22;;;;;;;18.52;12.23;;;5.80;92.80;;;;;;5075686;28;20028;-78
2020/12/19 06:29:49;;;;;;;18.75;11.65;;;5.80;92.70;;;;;;5075662;28;20059;-79
2020/12/19 06:32:19;;;;;;;17.17;11.95;;;5.80;92.70;;;;;;5075123;28;20043;-79
2020/12/19 06:34:56;;;;;;;;;;;5.80;92.70;;;;;;5076859;28;20496;-79
2020/12/19 06:37:25;;;;;;;17.73;11.52;;;5.80;92.70;;;;;;5075070;28;19905;-79
2020/12/19 06:40:23;;;;;;;18.13;11.80;;;5.80;92.70;;;;;;5074940;28;20086;-79
2020/12/19 06:43:08;;;;;;;19.55;11.52;;;5.80;93.10;;;;;;5063927;28;20040;-79
2020/12/19 06:45:35;;;;;;;18.25;12.43;;;5.80;92.70;;;;;;5058313;28;20028;-79
2020/12/19 06:48:00;;;;;;;17.33;11.25;;;5.80;92.70;;;;;;5075829;28;20388;-78
2020/12/19 06:51:04;;;;;;;19.45;11.82;;;5.80;92.70;;;;;;5041696;28;20025;-79
2020/12/19 06:53:31;;;;;;;19.88;12.00;;;5.80;92.80;;;;;;5058372;28;20037;-79
2020/12/19 06:55:58;;;;;;;19.48;12.15;;;5.80;92.70;;;;;;5058299;28;20477;-79
2020/12/19 06:58:34;;;;;;;17.23;11.95;;;5.80;92.70;;;;;;5041579;28;20386;-79
2020/12/19 07:01:01;;;;;;;20.58;12.40;;;5.80;92.80;;;;;;5058127;28;20021;-79
2020/12/19 07:03:42;;;;;;;19.33;12.88;;;5.80;92.80;;;;;;5057764;28;20033;-79
2020/12/19 07:06:13;;;;;;;17.25;11.77;;;5.80;92.80;;;;;;5075395;28;20093;-79
2020/12/19 07:08:39;;;;;;;18.25;11.75;;;5.80;92.80;;;;;;5091330;28;20027;-79
2020/12/19 07:11:04;;;;;;;16.42;11.43;;;5.80;92.80;;;;;;5075600;28;20024;-79
2020/12/19 07:13:52;;;;;;;18.73;12.40;;;5.80;92.80;;;;;;5041285;28;21990;-79
2020/12/19 07:16:42;;;;;;;18.25;11.75;;;5.90;92.80;;;;;;5075769;28;20032;-79
2020/12/19 07:19:34;;;;;;;18.90;11.85;;;5.90;92.80;;;;;;5075603;28;20681;-79
2020/12/19 07:21:59;;;;;;;16.77;11.02;;;5.90;93.00;;;;;;5037325;28;20033;-79
2020/12/19 07:24:25;;;;;;;18.50;11.75;;;5.90;92.70;;;;;;5057852;28;20025;-79
2020/12/19 07:26:52;;;;;;;17.27;11.25;;;6.00;92.70;;;;;;5056327;28;20481;-79
2020/12/19 07:29:22;;;;;;;21.75;13.70;;;5.90;92.70;;;;;;5075602;28;20028;-79
2020/12/19 07:31:54;;;;;;;19.15;13.20;;;6.00;92.70;;;;;;5091105;28;20028;-79
2020/12/19 07:34:20;;;;;;;20.08;12.55;;;5.90;92.70;;;;;;5090864;28;20031;-79
2020/12/19 07:36:48;;;;;;;18.67;12.45;;;6.00;92.80;;;;;;5057559;28;20025;-78
2020/12/19 07:39:15;;;;;;;17.80;12.43;;;6.00;92.80;;;;;;5091051;28;20382;-78
2020/12/19 07:41:43;;;;;;;20.30;12.85;;;6.00;92.80;;;;;;5075333;28;20032;-78
2020/12/19 07:44:13;;;;;;;23.55;12.45;;;6.10;92.80;;;;;;5040786;28;20040;-78
2020/12/19 07:46:57;;;;;;;17.60;11.93;;;6.10;92.80;;;;;;5075323;28;20024;-78
2020/12/19 07:49:23;;;;;;;17.40;11.73;;;6.10;93.10;;;;;;5075461;28;20024;-78
2020/12/19 07:51:50;;;;;;;18.98;11.48;;;6.10;92.80;;;;;;5074896;28;20461;-78
2020/12/19 07:54:16;;;;;;;18.73;10.88;;;6.10;92.80;;;;;;5075032;28;20064;-78
2020/12/19 07:56:42;;;;;;;17.50;11.43;;;6.10;92.80;;;;;;5073887;28;20389;-78
2020/12/19 07:59:10;;;;;;;18.27;11.48;;;6.10;92.80;;;;;;5057116;28;20049;-78
2020/12/19 08:01:39;;;;;;;20.10;12.07;;;6.10;92.80;;;;;;5073795;28;20035;-78
2020/12/19 08:04:05;;;;;;;15.35;10.32;;;6.10;92.80;;;;;;5090553;28;20032;-78
2020/12/19 08:06:45;;;;;;;17.23;11.35;;;6.10;92.80;;;;;;5090196;28;20028;-78
2020/12/19 08:09:11;;;;;;;16.73;10.60;;;6.10;92.80;;;;;;5090282;28;20079;-78
2020/12/19 08:11:48;;;;;;;19.17;12.27;;;6.10;92.80;;;;;;5074560;28;20055;-78
2020/12/19 08:14:18;;;;;;;18.27;12.07;;;6.10;92.90;;;;;;5074428;28;20687;-78
2020/12/19 08:16:45;;;;;;;17.67;11.20;;;6.10;93.10;;;;;;5057031;28;20385;-78
2020/12/19 08:19:14;;;;;;;18.50;11.02;;;6.10;92.80;;;;;;5056619;28;20025;-78
2020/12/19 08:21:43;;;;;;;18.92;11.25;;;6.20;92.90;;;;;;5074544;28;20032;-78
2020/12/19 08:24:10;;;;;;;16.45;10.82;;;6.20;92.90;;;;;;5074149;28;20032;-75
2020/12/19 08:26:36;;;;;;;18.25;12.13;;;6.30;92.90;;;;;;5055898;28;20039;-76
2020/12/19 08:29:02;;;;;;;23.00;13.57;;;6.30;92.80;;;;;;5056013;28;20032;-77
2020/12/19 08:31:28;;;;;;;22.35;12.68;;;6.30;92.90;;;;;;5074162;28;20103;-78
2020/12/19 08:33:56;;;;;;;21.65;13.60;;;6.40;92.90;;;;;;5074161;28;20036;-76
2020/12/19 08:36:21;;;;;;;20.38;12.95;;;6.40;92.90;;;;;;5055505;28;20046;-75
2020/12/19 08:38:47;;;;;;;19.50;12.98;;;6.40;92.90;;;;;;5038105;28;20028;-75
2020/12/19 08:41:21;;;;;;;19.20;12.70;;;6.50;92.80;;;;;;5055297;28;20493;-75
2020/12/19 08:43:47;;;;;;;19.17;13.43;;;6.60;92.90;;;;;;5038812;28;20044;-75
2020/12/19 08:46:14;;;;;;;21.27;13.88;;;6.60;92.80;;;;;;5055465;28;20035;-75
2020/12/19 08:48:41;;;;;;;22.23;13.75;;;6.60;92.80;;;;;;5039052;28;20063;-76
2020/12/19 08:51:14;;;;;;;24.17;15.20;;;6.70;92.70;;;;;;5073030;28;20031;-76
2020/12/19 08:53:39;;;;;;;21.27;14.20;;;6.80;92.70;;;;;;5054860;28;20029;-75
2020/12/19 08:56:16;;;;;;;21.20;13.85;;;6.80;92.70;;;;;;5055298;28;20112;-76
2020/12/19 08:58:42;;;;;;;22.20;13.93;;;6.90;92.70;;;;;;5035528;28;20458;-76
2020/12/19 09:01:15;;;;;;;22.80;13.85;;;6.90;92.70;;;;;;5051498;28;20021;-75
2020/12/19 09:03:42;;;;;;;17.65;12.10;;;6.90;92.60;;;;;;5062505;28;20034;-75
2020/12/19 09:06:13;;;;;;;22.05;13.80;;;7.00;92.90;;;;;;5075788;28;20048;-75
2020/12/19 09:08:40;;;;;;;19.98;13.98;;;7.10;92.70;;;;;;5066807;28;20476;-75
2020/12/19 09:11:08;;;;;;;23.13;14.73;;;7.10;92.70;;;;;;5049151;28;20033;-75
2020/12/19 09:13:36;;;;;;;21.15;14.50;;;7.20;92.60;;;;;;5069817;28;20036;-75
2020/12/19 09:16:09;;;;;;;24.92;13.93;;;7.30;92.60;;;;;;5076568;28;20107;-75
2020/12/19 09:18:36;;;;;;;24.25;14.82;;;7.40;92.60;;;;;;5072342;28;20552;-75
2020/12/19 09:21:05;;;;;;;19.65;13.23;;;7.40;92.60;;;;;;5071285;28;20107;-76
2020/12/19 09:23:31;;;;;;;22.20;13.27;;;7.50;92.50;;;;;;5072884;28;20091;-75
2020/12/19 09:25:59;;;;;;;22.35;12.27;;;7.50;92.50;;;;;;5072076;28;20079;-76
2020/12/19 09:28:25;;;;;;;18.52;11.93;;;7.60;92.50;;;;;;5072528;28;20499;-75
2020/12/19 09:30:52;;;;;;;16.83;12.13;;;7.70;92.40;;;;;;5071229;28;20032;-75
2020/12/19 09:33:18;;;;;;;21.05;13.63;;;7.70;92.40;;;;;;5051264;28;20485;-74
2020/12/19 09:35:44;;;;;;;19.83;12.35;;;7.80;92.40;;;;;;5069623;28;20469;-74
2020/12/19 09:38:10;;;;;;;18.13;11.38;;;7.90;92.30;;;;;;5054807;28;20035;-74
2020/12/19 09:40:36;;;;;;;19.23;11.60;;;7.90;92.30;;;;;;5071467;28;20033;-74
2020/12/19 09:43:03;;;;;;;19.42;10.98;;;8.00;92.30;;;;;;5071163;28;20472;-74
2020/12/19 09:45:28;;;;;;;19.33;11.50;;;8.00;92.20;;;;;;5080645;28;20460;-74
2020/12/19 09:47:55;;;;;;;15.35;10.73;;;8.00;92.20;;;;;;5074750;28;20046;-74
2020/12/19 09:50:22;;;;;;;15.13;10.65;;;8.10;92.10;;;;;;5074080;28;20028;-74
2020/12/19 09:52:48;;;;;;;16.25;11.40;;;8.20;92.30;;;;;;5092046;28;20032;-74
2020/12/19 09:55:14;;;;;;;14.77;10.63;;;8.30;92.00;;;;;;5078909;28;20036;-75
2020/12/19 09:57:40;;;;;;;17.10;10.95;;;8.40;92.00;;;;;;5072452;28;20066;-75
2020/12/19 10:00:07;;;;;;;15.20;10.77;;;8.50;92.00;;;;;;5090012;28;20043;-74
2020/12/19 10:02:33;;;;;;;14.57;10.43;;;8.50;91.90;;;;;;5073175;28;20529;-75
2020/12/19 10:04:58;;;;;;;17.63;9.68;;;8.60;91.90;;;;;;5073177;28;20024;-79
2020/12/19 10:07:24;;;;;;;14.50;9.50;;;8.70;91.80;;;;;;5073913;28;20032;-79
2020/12/19 10:09:50;;;;;;;12.88;9.50;;;8.70;91.80;;;;;;5074190;28;20510;-79
2020/12/19 10:12:16;;;;;;;13.13;9.48;;;8.80;91.70;;;;;;5092273;28;20073;-80
2020/12/19 10:14:41;;;;;;;13.98;9.93;;;8.80;91.70;;;;;;5067065;28;20037;-80
2020/12/19 10:17:07;;;;;;;12.82;9.18;;;8.90;91.60;;;;;;5089819;28;20492;-79
2020/12/19 10:19:33;;;;;;;16.83;8.95;;;9.00;91.60;;;;;;5057759;28;20039;-80
2020/12/19 10:21:58;;;;;;;17.30;8.82;;;9.00;91.50;;;;;;5088765;28;20024;-80
2020/12/19 10:24:25;;;;;;;13.10;8.95;;;9.10;91.40;;;;;;5074317;28;20056;-79
2020/12/19 10:26:51;;;;;;;18.60;9.45;;;9.20;91.40;;;;;;5076613;28;20031;-80
2020/12/19 10:29:16;;;;;;;13.32;8.63;;;9.20;91.40;;;;;;5092399;28;20492;-78
2020/12/19 10:31:42;;;;;;;14.30;8.63;;;9.30;91.20;;;;;;5089218;28;20024;-75
2020/12/19 10:34:08;;;;;;;17.25;9.23;;;9.40;91.10;;;;;;5084229;28;20025;-75
2020/12/19 10:36:33;;;;;;;10.27;7.78;;;9.50;91.10;;;;;;5072908;28;20488;-75
2020/12/19 10:39:00;;;;;;;14.18;8.20;;;9.50;91.00;;;;;;5087137;28;20713;-75
2020/12/19 10:41:26;;;;;;;11.50;8.10;;;9.60;90.90;;;;;;5059748;28;20550;-75
2020/12/19 10:43:51;;;;;;;16.70;9.75;;;9.70;90.80;;;;;;5089281;28;20032;-75
2020/12/19 10:46:21;;;;;;;16.77;9.57;;;9.80;90.80;;;;;;5090423;28;20032;-75
2020/12/19 10:48:47;;;;;;;15.40;9.30;;;9.90;90.70;;;;;;5065417;28;20094;-75
2020/12/19 10:51:13;;;;;;;14.02;9.15;;;10.00;90.50;;;;;;5072314;28;20028;-79
2020/12/19 10:53:41;;;;;;;14.93;8.30;;;10.10;90.50;;;;;;5065137;28;20109;-80
2020/12/19 10:56:06;;;;;;;14.23;8.88;;;10.10;90.40;;;;;;5090503;28;20510;-80
2020/12/19 10:58:32;;;;;;;13.75;8.88;;;10.20;90.40;;;;;;5092171;28;20455;-80
2020/12/19 11:00:58;;;;;;;9.95;7.63;;;10.30;90.30;;;;;;5075402;28;20115;-80
2020/12/19 11:03:23;;;;;;;12.10;7.38;;;10.40;90.20;;;;;;5095636;28;20004;-75
2020/12/19 11:05:49;;;;;;;10.70;6.80;;;10.40;90.10;;;;;;5076989;28;20052;-75
2020/12/19 11:08:14;;;;;;;8.38;6.35;;;10.40;90.00;;;;;;5076616;28;20024;-74
2020/12/19 11:10:43;;;;;;;7.18;6.18;;;10.50;90.00;;;;;;5076580;28;20028;-75
2020/12/19 11:13:08;;;;;;;9.65;6.10;;;10.60;89.90;;;;;;5094452;28;20040;-75
2020/12/19 11:15:34;;;;;;;7.03;5.50;;;10.70;89.70;;;;;;5087592;28;20024;-75
2020/12/19 11:18:00;;;;;;;7.18;5.25;;;10.70;89.40;;;;;;5088801;28;20021;-74
2020/12/19 11:20:25;;;;;;;7.68;5.55;;;10.80;89.10;;;;;;5049515;28;20120;-81
2020/12/19 11:22:51;;;;;;;7.00;4.95;;;10.90;88.80;;;;;;5074148;28;20017;-80
2020/12/19 11:25:17;;;;;;;6.05;5.13;;;11.10;88.50;;;;;;5077510;28;20043;-81
2020/12/19 11:27:43;;;;;;;6.43;4.40;;;11.20;88.10;;;;;;5076999;28;20104;-81
2020/12/19 11:30:09;;;;;;;8.02;5.03;;;11.30;87.70;;;;;;5091073;28;20039;-76
2020/12/19 11:32:35;;;;;;;6.28;4.30;;;11.40;87.10;;;;;;5089054;28;20056;-77
2020/12/19 11:35:01;;;;;;;8.18;4.03;;;11.50;86.50;;;;;;5071799;28;20032;-76
2020/12/19 11:37:26;;;;;;;6.97;4.30;;;11.50;86.30;;;;;;5090433;28;20032;-76
2020/12/19 11:39:53;;;;;;;7.20;4.63;;;11.60;86.30;;;;;;5093763;28;20103;-76
2020/12/19 11:42:20;;;;;;;14.13;4.57;;;11.60;86.00;;;;;;5054887;28;20028;-77
2020/12/19 11:44:45;;;;;;;6.97;4.63;;;11.70;85.80;;;;;;5073541;28;20024;-76
2020/12/19 11:47:11;;;;;;;6.80;4.35;;;11.90;84.50;;;;;;5075855;28;20128;-76
2020/12/19 11:49:36;;;;;;;6.13;4.47;;;12.00;84.50;;;;;;5038853;28;20412;-76
2020/12/19 11:52:02;;;;;;;7.55;4.43;;;12.00;84.50;;;;;;5078268;28;20038;-76
2020/12/19 11:54:28;;;;;;;6.28;4.40;;;11.90;84.50;;;;;;5131375;27;20417;-76
2020/12/19 11:56:54;;;;;;;6.10;4.43;;;11.80;84.60;;;;;;5097388;28;20054;-76
2020/12/19 11:59:20;;;;;;;6.05;4.25;;;11.80;85.10;;;;;;5097125;28;20095;-76
2020/12/19 12:01:45;;;;;;;7.05;4.85;;;11.70;85.60;;;;;;5110676;28;20027;-76
2020/12/19 12:04:11;;;;;;;10.52;4.47;;;11.60;85.90;;;;;;5080818;28;20039;-88
2020/12/19 12:06:37;;;;;;;6.45;4.20;;;11.60;86.10;;;;;;5084704;28;20127;-89
2020/12/19 12:09:04;;;;;;;5.82;4.03;;;11.60;86.00;;;;;;5067198;28;20085;-88
2020/12/19 12:11:32;;;;;;;8.10;4.22;;;11.60;85.80;;;;;;5064683;28;20107;-88
2020/12/19 12:13:58;;;;;;;6.95;3.58;;;11.60;85.90;;;;;;5104164;28;20023;-89
2020/12/19 12:16:25;;;;;;;5.40;3.95;;;11.50;86.00;;;;;;5102298;28;20043;-88
2020/12/19 12:18:51;;;;;;;15.55;4.28;;;11.50;86.20;;;;;;5081409;28;20535;-88
2020/12/19 12:21:17;;;;;;;4.78;3.65;;;11.50;87.10;;;;;;5078526;28;20031;-85
2020/12/19 12:23:46;;;;;;;4.15;3.28;;;11.50;86.50;;;;;;5079673;28;20032;-78
2020/12/19 12:26:29;;;;;;;4.97;3.50;;;11.50;86.60;;;;;;5090101;28;20077;-78
2020/12/19 12:28:55;;;;;;;6.32;2.95;;;11.50;87.20;;;;;;5062760;28;20025;-78
2020/12/19 12:31:25;;;;;;;4.30;3.03;;;11.50;86.50;;;;;;5072216;28;20489;-79
2020/12/19 12:33:51;;;;;;;7.93;2.80;;;11.50;86.60;;;;;;5087087;28;20071;-84
2020/12/19 12:36:18;;;;;;;3.35;2.40;;;11.50;87.10;;;;;;5054708;28;20422;-90
2020/12/19 12:38:44;;;;;;;4.10;2.53;;;11.60;86.30;;;;;;5077630;28;20119;-90